sensor_id;sensor_type;location;lat;lon;timestamp;P1;durP1;ratioP1;P2;durP2;ratioP2
14080;SDS011;7116;52.152;5.392;2023-02-13T00:00:57;20.13;;;13.00;;
14080;SDS011;7116;52.152;5.392;2023-02-13T00:03:22;25.43;;;14.00;;
14080;SDS011;7116;52.152;5.392;2023-02-13T00:05:47;23.47;;;13.63;;
14080;SDS011;7116;52.152;5.392;2023-02-13T00:08:12;22.20;;;13.13;;
14080;SDS011;7116;52.152;5.392;2023-02-13T00:10:38;25.67;;;14.87;;
14080;SDS011;7116;52.152;5.392;2023-02-13T00:13:03;23.27;;;14.07;;
14080;SDS011;7116;52.152;5.392;2023-02-13T00:15:28;27.03;;;14.60;;
14080;SDS011;7116;52.152;5.392;2023-02-13T00:17:53;23.60;;;13.63;;
14080;SDS011;7116;52.152;5.392;2023-02-13T00:20:18;23.30;;;12.55;;
14080;SDS011;7116;52.152;5.392;2023-02-13T00:22:44;23.00;;;13.70;;
14080;SDS011;7116;52.152;5.392;2023-02-13T00:25:09;21.60;;;12.30;;
14080;SDS011;7116;52.152;5.392;2023-02-13T00:27:34;24.97;;;14.43;;
14080;SDS011;7116;52.152;5.392;2023-02-13T00:29:59;23.27;;;13.97;;
14080;SDS011;7116;52.152;5.392;2023-02-13T00:32:25;20.07;;;12.57;;
14080;SDS011;7116;52.152;5.392;2023-02-13T00:34:50;23.43;;;14.37;;
14080;SDS011;7116;52.152;5.392;2023-02-13T00:37:15;28.23;;;14.47;;
14080;SDS011;7116;52.152;5.392;2023-02-13T00:39:40;19.83;;;12.53;;
14080;SDS011;7116;52.152;5.392;2023-02-13T00:42:06;23.00;;;13.50;;
14080;SDS011;7116;52.152;5.392;2023-02-13T00:44:31;20.37;;;13.20;;
14080;SDS011;7116;52.152;5.392;2023-02-13T00:46:56;23.43;;;13.43;;
14080;SDS011;7116;52.152;5.392;2023-02-13T00:49:21;23.57;;;13.63;;
14080;SDS011;7116;52.152;5.392;2023-02-13T00:51:46;25.50;;;14.37;;
14080;SDS011;7116;52.152;5.392;2023-02-13T00:54:12;22.30;;;14.03;;
14080;SDS011;7116;52.152;5.392;2023-02-13T00:56:37;22.80;;;13.90;;
14080;SDS011;7116;52.152;5.392;2023-02-13T00:59:02;25.43;;;13.83;;
14080;SDS011;7116;52.152;5.392;2023-02-13T01:01:27;23.53;;;14.57;;
14080;SDS011;7116;52.152;5.392;2023-02-13T01:03:52;22.10;;;12.77;;
14080;SDS011;7116;52.152;5.392;2023-02-13T01:06:17;24.67;;;14.23;;
14080;SDS011;7116;52.152;5.392;2023-02-13T01:08:43;26.60;;;13.90;;
14080;SDS011;7116;52.152;5.392;2023-02-13T01:11:08;28.93;;;15.47;;
14080;SDS011;7116;52.152;5.392;2023-02-13T01:13:33;21.03;;;12.50;;
14080;SDS011;7116;52.152;5.392;2023-02-13T01:15:58;22.80;;;11.83;;
14080;SDS011;7116;52.152;5.392;2023-02-13T01:18:24;21.63;;;12.53;;
14080;SDS011;7116;52.152;5.392;2023-02-13T01:20:56;28.60;;;14.47;;
14080;SDS011;7116;52.152;5.392;2023-02-13T01:23:21;22.92;;;12.80;;
14080;SDS011;7116;52.152;5.392;2023-02-13T01:25:47;21.90;;;13.73;;
14080;SDS011;7116;52.152;5.392;2023-02-13T01:28:12;21.77;;;13.90;;
14080;SDS011;7116;52.152;5.392;2023-02-13T01:30:37;22.97;;;13.17;;
14080;SDS011;7116;52.152;5.392;2023-02-13T01:33:02;25.60;;;14.60;;
14080;SDS011;7116;52.152;5.392;2023-02-13T01:35:27;24.30;;;13.77;;
14080;SDS011;7116;52.152;5.392;2023-02-13T01:37:53;24.10;;;13.57;;
14080;SDS011;7116;52.152;5.392;2023-02-13T01:40:18;24.23;;;13.60;;
14080;SDS011;7116;52.152;5.392;2023-02-13T01:42:43;24.93;;;13.13;;
14080;SDS011;7116;52.152;5.392;2023-02-13T01:45:20;22.83;;;13.20;;
14080;SDS011;7116;52.152;5.392;2023-02-13T01:47:47;21.73;;;13.50;;
14080;SDS011;7116;52.152;5.392;2023-02-13T01:50:29;22.25;;;12.70;;
14080;SDS011;7116;52.152;5.392;2023-02-13T01:53:12;22.70;;;13.45;;
14080;SDS011;7116;52.152;5.392;2023-02-13T01:55:45;24.27;;;13.03;;
14080;SDS011;7116;52.152;5.392;2023-02-13T01:58:12;23.02;;;13.45;;
14080;SDS011;7116;52.152;5.392;2023-02-13T02:00:39;24.35;;;14.02;;
14080;SDS011;7116;52.152;5.392;2023-02-13T02:03:14;22.10;;;12.70;;
14080;SDS011;7116;52.152;5.392;2023-02-13T02:05:41;20.35;;;12.07;;
14080;SDS011;7116;52.152;5.392;2023-02-13T02:08:07;25.70;;;14.13;;
14080;SDS011;7116;52.152;5.392;2023-02-13T02:10:34;22.38;;;12.70;;
14080;SDS011;7116;52.152;5.392;2023-02-13T02:15:24;24.17;;;14.57;;
14080;SDS011;7116;52.152;5.392;2023-02-13T02:17:50;23.97;;;13.17;;
14080;SDS011;7116;52.152;5.392;2023-02-13T02:23:03;21.58;;;12.85;;
14080;SDS011;7116;52.152;5.392;2023-02-13T02:28:22;22.77;;;12.70;;
14080;SDS011;7116;52.152;5.392;2023-02-13T02:31:09;25.85;;;14.23;;
14080;SDS011;7116;52.152;5.392;2023-02-13T02:33:44;26.03;;;14.03;;
14080;SDS011;7116;52.152;5.392;2023-02-13T02:41:14;20.52;;;12.68;;
14080;SDS011;7116;52.152;5.392;2023-02-13T02:44:11;21.80;;;13.35;;
14080;SDS011;7116;52.152;5.392;2023-02-13T02:46:44;22.93;;;11.87;;
14080;SDS011;7116;52.152;5.392;2023-02-13T02:49:34;22.52;;;12.95;;
14080;SDS011;7116;52.152;5.392;2023-02-13T02:52:22;23.05;;;13.82;;
14080;SDS011;7116;52.152;5.392;2023-02-13T02:54:51;21.55;;;12.85;;
14080;SDS011;7116;52.152;5.392;2023-02-13T02:57:30;23.52;;;13.02;;
14080;SDS011;7116;52.152;5.392;2023-02-13T03:00:19;21.83;;;12.40;;
14080;SDS011;7116;52.152;5.392;2023-02-13T03:03:04;21.80;;;12.75;;
14080;SDS011;7116;52.152;5.392;2023-02-13T03:05:52;21.52;;;12.60;;
14080;SDS011;7116;52.152;5.392;2023-02-13T03:08:39;23.10;;;13.95;;
14080;SDS011;7116;52.152;5.392;2023-02-13T03:11:23;23.05;;;13.40;;
14080;SDS011;7116;52.152;5.392;2023-02-13T03:14:08;25.53;;;13.43;;
14080;SDS011;7116;52.152;5.392;2023-02-13T03:16:34;21.92;;;13.30;;
14080;SDS011;7116;52.152;5.392;2023-02-13T03:19:34;22.02;;;12.70;;
14080;SDS011;7116;52.152;5.392;2023-02-13T03:22:27;21.27;;;12.98;;
14080;SDS011;7116;52.152;5.392;2023-02-13T03:35:42;21.70;;;11.75;;
14080;SDS011;7116;52.152;5.392;2023-02-13T03:38:38;21.85;;;13.00;;
14080;SDS011;7116;52.152;5.392;2023-02-13T03:41:06;27.50;;;14.55;;
14080;SDS011;7116;52.152;5.392;2023-02-13T03:46:09;24.47;;;12.87;;
14080;SDS011;7116;52.152;5.392;2023-02-13T03:48:35;23.33;;;13.05;;
14080;SDS011;7116;52.152;5.392;2023-02-13T03:51:22;25.38;;;14.00;;
14080;SDS011;7116;52.152;5.392;2023-02-13T03:53:50;26.70;;;13.30;;
14080;SDS011;7116;52.152;5.392;2023-02-13T03:56:16;24.30;;;14.18;;
14080;SDS011;7116;52.152;5.392;2023-02-13T03:59:01;25.45;;;13.88;;
14080;SDS011;7116;52.152;5.392;2023-02-13T04:01:47;24.83;;;14.30;;
14080;SDS011;7116;52.152;5.392;2023-02-13T04:06:50;24.03;;;13.90;;
14080;SDS011;7116;52.152;5.392;2023-02-13T04:09:16;26.27;;;13.77;;
14080;SDS011;7116;52.152;5.392;2023-02-13T04:11:44;26.63;;;14.37;;
14080;SDS011;7116;52.152;5.392;2023-02-13T04:14:30;22.85;;;13.82;;
14080;SDS011;7116;52.152;5.392;2023-02-13T04:17:05;26.85;;;14.43;;
14080;SDS011;7116;52.152;5.392;2023-02-13T04:19:31;21.98;;;13.07;;
14080;SDS011;7116;52.152;5.392;2023-02-13T04:21:57;24.23;;;14.27;;
14080;SDS011;7116;52.152;5.392;2023-02-13T04:24:24;24.83;;;13.75;;
14080;SDS011;7116;52.152;5.392;2023-02-13T04:26:49;25.75;;;13.73;;
14080;SDS011;7116;52.152;5.392;2023-02-13T04:29:14;22.05;;;12.85;;
14080;SDS011;7116;52.152;5.392;2023-02-13T04:31:39;24.00;;;12.90;;
14080;SDS011;7116;52.152;5.392;2023-02-13T04:34:04;22.40;;;12.97;;
14080;SDS011;7116;52.152;5.392;2023-02-13T04:36:30;23.60;;;14.10;;
14080;SDS011;7116;52.152;5.392;2023-02-13T04:38:55;23.87;;;13.90;;
14080;SDS011;7116;52.152;5.392;2023-02-13T04:41:20;19.73;;;11.70;;
14080;SDS011;7116;52.152;5.392;2023-02-13T04:43:45;25.17;;;13.77;;
14080;SDS011;7116;52.152;5.392;2023-02-13T04:46:11;23.97;;;13.90;;
14080;SDS011;7116;52.152;5.392;2023-02-13T04:48:36;25.10;;;13.67;;
14080;SDS011;7116;52.152;5.392;2023-02-13T04:51:01;22.53;;;12.83;;
14080;SDS011;7116;52.152;5.392;2023-02-13T04:53:26;33.63;;;28.17;;
14080;SDS011;7116;52.152;5.392;2023-02-13T04:55:51;25.77;;;13.27;;
14080;SDS011;7116;52.152;5.392;2023-02-13T04:58:16;25.80;;;15.00;;
14080;SDS011;7116;52.152;5.392;2023-02-13T05:00:42;27.90;;;13.97;;
14080;SDS011;7116;52.152;5.392;2023-02-13T05:03:08;26.27;;;13.00;;
14080;SDS011;7116;52.152;5.392;2023-02-13T05:05:34;21.17;;;12.53;;
14080;SDS011;7116;52.152;5.392;2023-02-13T05:07:59;22.10;;;13.82;;
14080;SDS011;7116;52.152;5.392;2023-02-13T05:10:25;26.97;;;13.23;;
14080;SDS011;7116;52.152;5.392;2023-02-13T05:12:50;21.20;;;12.83;;
14080;SDS011;7116;52.152;5.392;2023-02-13T05:15:15;26.50;;;14.33;;
14080;SDS011;7116;52.152;5.392;2023-02-13T05:17:43;23.52;;;13.05;;
14080;SDS011;7116;52.152;5.392;2023-02-13T05:20:09;24.80;;;13.80;;
14080;SDS011;7116;52.152;5.392;2023-02-13T05:22:35;24.65;;;13.50;;
14080;SDS011;7116;52.152;5.392;2023-02-13T05:25:19;25.50;;;13.23;;
14080;SDS011;7116;52.152;5.392;2023-02-13T05:27:44;27.53;;;13.70;;
14080;SDS011;7116;52.152;5.392;2023-02-13T05:30:09;25.60;;;14.20;;
14080;SDS011;7116;52.152;5.392;2023-02-13T05:32:35;28.13;;;14.73;;
14080;SDS011;7116;52.152;5.392;2023-02-13T05:35:00;26.63;;;14.47;;
14080;SDS011;7116;52.152;5.392;2023-02-13T05:37:25;34.03;;;15.13;;
14080;SDS011;7116;52.152;5.392;2023-02-13T05:39:50;26.83;;;15.13;;
14080;SDS011;7116;52.152;5.392;2023-02-13T05:42:15;23.23;;;13.03;;
14080;SDS011;7116;52.152;5.392;2023-02-13T05:44:41;28.50;;;14.77;;
14080;SDS011;7116;52.152;5.392;2023-02-13T05:47:06;25.30;;;14.90;;
14080;SDS011;7116;52.152;5.392;2023-02-13T05:49:31;23.20;;;13.90;;
14080;SDS011;7116;52.152;5.392;2023-02-13T05:51:56;27.57;;;15.53;;
14080;SDS011;7116;52.152;5.392;2023-02-13T05:54:21;23.67;;;14.43;;
14080;SDS011;7116;52.152;5.392;2023-02-13T05:56:47;29.37;;;14.90;;
14080;SDS011;7116;52.152;5.392;2023-02-13T05:59:12;23.93;;;14.60;;
14080;SDS011;7116;52.152;5.392;2023-02-13T06:01:37;23.00;;;12.77;;
14080;SDS011;7116;52.152;5.392;2023-02-13T06:04:03;24.65;;;14.77;;
14080;SDS011;7116;52.152;5.392;2023-02-13T06:06:28;27.52;;;14.63;;
14080;SDS011;7116;52.152;5.392;2023-02-13T06:08:53;29.77;;;14.27;;
14080;SDS011;7116;52.152;5.392;2023-02-13T06:11:18;30.10;;;14.27;;
14080;SDS011;7116;52.152;5.392;2023-02-13T06:13:44;24.83;;;13.00;;
14080;SDS011;7116;52.152;5.392;2023-02-13T06:16:09;26.33;;;14.67;;
14080;SDS011;7116;52.152;5.392;2023-02-13T06:18:35;23.43;;;13.50;;
14080;SDS011;7116;52.152;5.392;2023-02-13T06:21:00;28.63;;;15.00;;
14080;SDS011;7116;52.152;5.392;2023-02-13T06:23:26;22.43;;;13.77;;
14080;SDS011;7116;52.152;5.392;2023-02-13T06:25:51;27.33;;;13.80;;
14080;SDS011;7116;52.152;5.392;2023-02-13T06:28:16;25.23;;;13.73;;
14080;SDS011;7116;52.152;5.392;2023-02-13T06:30:41;24.20;;;14.27;;
14080;SDS011;7116;52.152;5.392;2023-02-13T06:33:06;24.70;;;14.30;;
14080;SDS011;7116;52.152;5.392;2023-02-13T06:35:32;28.73;;;14.47;;
14080;SDS011;7116;52.152;5.392;2023-02-13T06:37:57;26.93;;;14.80;;
14080;SDS011;7116;52.152;5.392;2023-02-13T06:40:22;23.57;;;13.73;;
14080;SDS011;7116;52.152;5.392;2023-02-13T06:42:47;24.30;;;15.47;;
14080;SDS011;7116;52.152;5.392;2023-02-13T06:45:13;25.20;;;15.03;;
14080;SDS011;7116;52.152;5.392;2023-02-13T06:47:45;27.53;;;15.30;;
14080;SDS011;7116;52.152;5.392;2023-02-13T06:50:11;27.70;;;14.38;;
14080;SDS011;7116;52.152;5.392;2023-02-13T06:52:36;27.40;;;14.82;;
14080;SDS011;7116;52.152;5.392;2023-02-13T06:55:01;27.03;;;13.90;;
14080;SDS011;7116;52.152;5.392;2023-02-13T06:57:28;30.75;;;16.83;;
14080;SDS011;7116;52.152;5.392;2023-02-13T06:59:56;26.85;;;16.13;;
14080;SDS011;7116;52.152;5.392;2023-02-13T07:02:22;28.88;;;15.90;;
14080;SDS011;7116;52.152;5.392;2023-02-13T07:04:47;31.23;;;15.57;;
14080;SDS011;7116;52.152;5.392;2023-02-13T07:07:12;28.35;;;14.77;;
14080;SDS011;7116;52.152;5.392;2023-02-13T07:09:37;27.83;;;14.63;;
14080;SDS011;7116;52.152;5.392;2023-02-13T07:12:03;24.35;;;15.55;;
14080;SDS011;7116;52.152;5.392;2023-02-13T07:14:28;29.67;;;14.77;;
14080;SDS011;7116;52.152;5.392;2023-02-13T07:16:54;25.87;;;15.30;;
14080;SDS011;7116;52.152;5.392;2023-02-13T07:19:19;29.97;;;16.10;;
14080;SDS011;7116;52.152;5.392;2023-02-13T07:21:44;26.97;;;15.60;;
14080;SDS011;7116;52.152;5.392;2023-02-13T07:24:09;27.43;;;15.10;;
14080;SDS011;7116;52.152;5.392;2023-02-13T07:26:34;39.37;;;16.67;;
14080;SDS011;7116;52.152;5.392;2023-02-13T07:28:59;31.10;;;17.50;;
14080;SDS011;7116;52.152;5.392;2023-02-13T07:31:29;26.63;;;15.82;;
14080;SDS011;7116;52.152;5.392;2023-02-13T07:33:55;29.40;;;15.60;;
14080;SDS011;7116;52.152;5.392;2023-02-13T07:36:20;25.97;;;15.77;;
14080;SDS011;7116;52.152;5.392;2023-02-13T07:38:45;30.80;;;16.33;;
14080;SDS011;7116;52.152;5.392;2023-02-13T07:41:10;30.20;;;17.90;;
14080;SDS011;7116;52.152;5.392;2023-02-13T07:43:35;27.77;;;15.33;;
14080;SDS011;7116;52.152;5.392;2023-02-13T07:46:01;47.10;;;19.03;;
14080;SDS011;7116;52.152;5.392;2023-02-13T07:48:27;32.33;;;15.93;;
14080;SDS011;7116;52.152;5.392;2023-02-13T07:50:53;29.13;;;17.00;;
14080;SDS011;7116;52.152;5.392;2023-02-13T07:53:18;29.95;;;16.50;;
14080;SDS011;7116;52.152;5.392;2023-02-13T07:55:43;28.10;;;15.20;;
14080;SDS011;7116;52.152;5.392;2023-02-13T07:58:08;25.43;;;14.97;;
14080;SDS011;7116;52.152;5.392;2023-02-13T08:00:33;29.13;;;15.93;;
14080;SDS011;7116;52.152;5.392;2023-02-13T08:02:59;28.30;;;16.25;;
14080;SDS011;7116;52.152;5.392;2023-02-13T08:05:24;28.58;;;15.82;;
14080;SDS011;7116;52.152;5.392;2023-02-13T08:07:49;23.77;;;14.87;;
14080;SDS011;7116;52.152;5.392;2023-02-13T08:10:14;24.97;;;14.97;;
14080;SDS011;7116;52.152;5.392;2023-02-13T08:12:58;26.35;;;16.00;;
14080;SDS011;7116;52.152;5.392;2023-02-13T08:15:24;31.83;;;17.43;;
14080;SDS011;7116;52.152;5.392;2023-02-13T08:17:49;33.93;;;17.87;;
14080;SDS011;7116;52.152;5.392;2023-02-13T08:20:15;32.38;;;17.15;;
14080;SDS011;7116;52.152;5.392;2023-02-13T08:22:40;30.27;;;18.00;;
14080;SDS011;7116;52.152;5.392;2023-02-13T08:25:05;28.77;;;16.57;;
14080;SDS011;7116;52.152;5.392;2023-02-13T08:27:31;30.43;;;16.13;;
14080;SDS011;7116;52.152;5.392;2023-02-13T08:29:56;34.63;;;15.97;;
14080;SDS011;7116;52.152;5.392;2023-02-13T08:32:22;28.17;;;14.47;;
14080;SDS011;7116;52.152;5.392;2023-02-13T08:34:47;31.13;;;17.33;;
14080;SDS011;7116;52.152;5.392;2023-02-13T08:37:12;32.77;;;16.60;;
14080;SDS011;7116;52.152;5.392;2023-02-13T08:39:37;31.27;;;17.13;;
14080;SDS011;7116;52.152;5.392;2023-02-13T08:42:03;26.50;;;16.73;;
14080;SDS011;7116;52.152;5.392;2023-02-13T08:44:28;31.37;;;18.47;;
14080;SDS011;7116;52.152;5.392;2023-02-13T08:46:55;29.20;;;17.13;;
14080;SDS011;7116;52.152;5.392;2023-02-13T08:49:21;32.72;;;16.80;;
14080;SDS011;7116;52.152;5.392;2023-02-13T08:51:47;25.65;;;14.73;;
14080;SDS011;7116;52.152;5.392;2023-02-13T08:54:12;30.37;;;16.23;;
14080;SDS011;7116;52.152;5.392;2023-02-13T08:56:37;26.00;;;14.83;;
14080;SDS011;7116;52.152;5.392;2023-02-13T08:59:03;27.40;;;15.50;;
14080;SDS011;7116;52.152;5.392;2023-02-13T09:01:28;30.80;;;17.27;;
14080;SDS011;7116;52.152;5.392;2023-02-13T09:03:53;32.57;;;16.03;;
14080;SDS011;7116;52.152;5.392;2023-02-13T09:06:19;27.10;;;15.57;;
14080;SDS011;7116;52.152;5.392;2023-02-13T09:08:44;31.57;;;15.10;;
14080;SDS011;7116;52.152;5.392;2023-02-13T09:11:09;27.77;;;16.17;;
14080;SDS011;7116;52.152;5.392;2023-02-13T09:13:35;24.73;;;13.63;;
14080;SDS011;7116;52.152;5.392;2023-02-13T09:16:02;33.85;;;16.02;;
14080;SDS011;7116;52.152;5.392;2023-02-13T09:18:27;26.95;;;14.70;;
14080;SDS011;7116;52.152;5.392;2023-02-13T09:20:58;27.60;;;16.48;;
14080;SDS011;7116;52.152;5.392;2023-02-13T09:23:23;28.53;;;15.73;;
14080;SDS011;7116;52.152;5.392;2023-02-13T09:25:49;24.53;;;14.33;;
14080;SDS011;7116;52.152;5.392;2023-02-13T09:28:14;18.50;;;10.77;;
14080;SDS011;7116;52.152;5.392;2023-02-13T09:30:39;22.73;;;13.33;;
14080;SDS011;7116;52.152;5.392;2023-02-13T09:33:08;23.53;;;15.43;;
14080;SDS011;7116;52.152;5.392;2023-02-13T09:35:34;23.38;;;14.43;;
14080;SDS011;7116;52.152;5.392;2023-02-13T09:37:59;25.58;;;15.70;;
14080;SDS011;7116;52.152;5.392;2023-02-13T09:40:33;20.33;;;13.53;;
14080;SDS011;7116;52.152;5.392;2023-02-13T09:43:04;26.75;;;16.02;;
14080;SDS011;7116;52.152;5.392;2023-02-13T09:45:32;26.13;;;16.40;;
14080;SDS011;7116;52.152;5.392;2023-02-13T09:47:58;25.50;;;15.52;;
14080;SDS011;7116;52.152;5.392;2023-02-13T09:50:24;25.43;;;15.77;;
14080;SDS011;7116;52.152;5.392;2023-02-13T09:52:51;22.90;;;13.75;;
14080;SDS011;7116;52.152;5.392;2023-02-13T09:55:22;23.60;;;14.13;;
14080;SDS011;7116;52.152;5.392;2023-02-13T10:00:33;21.63;;;13.53;;
14080;SDS011;7116;52.152;5.392;2023-02-13T10:03:15;20.63;;;13.82;;
14080;SDS011;7116;52.152;5.392;2023-02-13T10:11:17;21.80;;;14.50;;
14080;SDS011;7116;52.152;5.392;2023-02-13T10:16:08;20.87;;;12.97;;
14080;SDS011;7116;52.152;5.392;2023-02-13T10:21:10;21.73;;;14.05;;
14080;SDS011;7116;52.152;5.392;2023-02-13T10:23:43;20.50;;;13.63;;
14080;SDS011;7116;52.152;5.392;2023-02-13T10:28:40;20.10;;;14.00;;
14080;SDS011;7116;52.152;5.392;2023-02-13T10:31:07;26.25;;;15.25;;
14080;SDS011;7116;52.152;5.392;2023-02-13T10:33:35;20.42;;;14.27;;
14080;SDS011;7116;52.152;5.392;2023-02-13T10:38:34;20.17;;;12.55;;
14080;SDS011;7116;52.152;5.392;2023-02-13T10:41:04;20.07;;;12.47;;
14080;SDS011;7116;52.152;5.392;2023-02-13T10:43:33;19.05;;;13.27;;
14080;SDS011;7116;52.152;5.392;2023-02-13T10:49:02;19.42;;;13.25;;
14080;SDS011;7116;52.152;5.392;2023-02-13T10:59:29;21.88;;;15.52;;
14080;SDS011;7116;52.152;5.392;2023-02-13T11:04:36;20.15;;;13.18;;
14080;SDS011;7116;52.152;5.392;2023-02-13T11:07:02;15.03;;;11.43;;
14080;SDS011;7116;52.152;5.392;2023-02-13T11:09:29;18.57;;;13.83;;
14080;SDS011;7116;52.152;5.392;2023-02-13T11:11:54;20.02;;;13.05;;
14080;SDS011;7116;52.152;5.392;2023-02-13T11:14:23;18.83;;;13.87;;
14080;SDS011;7116;52.152;5.392;2023-02-13T11:19:17;16.53;;;11.47;;
14080;SDS011;7116;52.152;5.392;2023-02-13T11:21:47;16.65;;;12.30;;
14080;SDS011;7116;52.152;5.392;2023-02-13T11:24:22;17.55;;;12.73;;
14080;SDS011;7116;52.152;5.392;2023-02-13T11:26:52;16.87;;;11.87;;
14080;SDS011;7116;52.152;5.392;2023-02-13T11:29:22;17.48;;;12.32;;
14080;SDS011;7116;52.152;5.392;2023-02-13T11:31:59;15.93;;;12.07;;
14080;SDS011;7116;52.152;5.392;2023-02-13T11:34:28;22.10;;;13.75;;
14080;SDS011;7116;52.152;5.392;2023-02-13T11:39:53;18.47;;;13.00;;
14080;SDS011;7116;52.152;5.392;2023-02-13T11:42:29;18.17;;;12.18;;
14080;SDS011;7116;52.152;5.392;2023-02-13T11:44:57;15.25;;;11.35;;
14080;SDS011;7116;52.152;5.392;2023-02-13T11:47:33;15.82;;;12.10;;
14080;SDS011;7116;52.152;5.392;2023-02-13T11:49:59;19.65;;;12.68;;
14080;SDS011;7116;52.152;5.392;2023-02-13T11:52:26;18.80;;;12.13;;
14080;SDS011;7116;52.152;5.392;2023-02-13T11:54:56;16.45;;;11.32;;
14080;SDS011;7116;52.152;5.392;2023-02-13T11:57:29;15.57;;;11.35;;
14080;SDS011;7116;52.152;5.392;2023-02-13T11:59:55;15.50;;;11.67;;
14080;SDS011;7116;52.152;5.392;2023-02-13T12:02:30;16.48;;;11.93;;
14080;SDS011;7116;52.152;5.392;2023-02-13T12:07:39;15.38;;;11.48;;
14080;SDS011;7116;52.152;5.392;2023-02-13T12:12:44;17.88;;;11.93;;
14080;SDS011;7116;52.152;5.392;2023-02-13T12:15:18;18.40;;;11.40;;
14080;SDS011;7116;52.152;5.392;2023-02-13T12:17:45;14.32;;;10.60;;
14080;SDS011;7116;52.152;5.392;2023-02-13T12:20:12;15.80;;;11.07;;
14080;SDS011;7116;52.152;5.392;2023-02-13T12:46:05;17.08;;;10.57;;
14080;SDS011;7116;52.152;5.392;2023-02-13T12:51:16;19.40;;;11.70;;
14080;SDS011;7116;52.152;5.392;2023-02-13T12:53:55;16.88;;;12.70;;
14080;SDS011;7116;52.152;5.392;2023-02-13T13:04:22;17.48;;;12.32;;
14080;SDS011;7116;52.152;5.392;2023-02-13T13:06:56;13.80;;;10.40;;
14080;SDS011;7116;52.152;5.392;2023-02-13T13:11:59;15.20;;;10.87;;
14080;SDS011;7116;52.152;5.392;2023-02-13T13:14:43;18.10;;;12.18;;
14080;SDS011;7116;52.152;5.392;2023-02-13T13:22:33;16.83;;;11.48;;
14080;SDS011;7116;52.152;5.392;2023-02-13T13:27:38;16.73;;;11.10;;
14080;SDS011;7116;52.152;5.392;2023-02-13T13:30:13;19.17;;;12.80;;
14080;SDS011;7116;52.152;5.392;2023-02-13T13:32:42;15.82;;;11.85;;
14080;SDS011;7116;52.152;5.392;2023-02-13T13:35:15;16.65;;;11.65;;
14080;SDS011;7116;52.152;5.392;2023-02-13T13:37:51;15.33;;;10.33;;
14080;SDS011;7116;52.152;5.392;2023-02-13T13:42:55;16.95;;;11.38;;
14080;SDS011;7116;52.152;5.392;2023-02-13T13:45:33;17.20;;;11.20;;
14080;SDS011;7116;52.152;5.392;2023-02-13T13:50:31;15.67;;;10.63;;
14080;SDS011;7116;52.152;5.392;2023-02-13T13:53:15;14.05;;;9.68;;
14080;SDS011;7116;52.152;5.392;2023-02-13T13:58:21;16.30;;;10.05;;
14080;SDS011;7116;52.152;5.392;2023-02-13T14:00:47;17.90;;;12.43;;
14080;SDS011;7116;52.152;5.392;2023-02-13T14:03:35;14.77;;;10.40;;
14080;SDS011;7116;52.152;5.392;2023-02-13T14:06:02;16.33;;;10.30;;
14080;SDS011;7116;52.152;5.392;2023-02-13T14:13:35;15.50;;;10.63;;
14080;SDS011;7116;52.152;5.392;2023-02-13T14:16:01;16.75;;;11.52;;
14080;SDS011;7116;52.152;5.392;2023-02-13T14:18:26;16.23;;;10.73;;
14080;SDS011;7116;52.152;5.392;2023-02-13T14:20:57;15.55;;;10.98;;
14080;SDS011;7116;52.152;5.392;2023-02-13T14:23:36;15.90;;;11.55;;
14080;SDS011;7116;52.152;5.392;2023-02-13T14:26:48;19.25;;;12.45;;
14080;SDS011;7116;52.152;5.392;2023-02-13T14:28:53;17.93;;;12.53;;
14080;SDS011;7116;52.152;5.392;2023-02-13T14:31:22;16.23;;;12.05;;
14080;SDS011;7116;52.152;5.392;2023-02-13T14:34:02;15.40;;;11.73;;
14080;SDS011;7116;52.152;5.392;2023-02-13T14:36:29;18.10;;;11.68;;
14080;SDS011;7116;52.152;5.392;2023-02-13T14:38:58;16.58;;;10.70;;
14080;SDS011;7116;52.152;5.392;2023-02-13T14:41:43;16.37;;;11.20;;
14080;SDS011;7116;52.152;5.392;2023-02-13T14:46:59;16.20;;;11.60;;
14080;SDS011;7116;52.152;5.392;2023-02-13T14:49:26;18.63;;;12.55;;
14080;SDS011;7116;52.152;5.392;2023-02-13T14:52:00;19.45;;;12.75;;
14080;SDS011;7116;52.152;5.392;2023-02-13T14:54:46;16.70;;;11.37;;
14080;SDS011;7116;52.152;5.392;2023-02-13T14:57:24;18.48;;;11.73;;
14080;SDS011;7116;52.152;5.392;2023-02-13T14:59:52;17.10;;;12.20;;
14080;SDS011;7116;52.152;5.392;2023-02-13T15:02:23;14.93;;;9.48;;
14080;SDS011;7116;52.152;5.392;2023-02-13T15:07:21;16.00;;;11.17;;
14080;SDS011;7116;52.152;5.392;2023-02-13T15:09:49;20.40;;;14.00;;
14080;SDS011;7116;52.152;5.392;2023-02-13T15:12:31;17.20;;;12.50;;
14080;SDS011;7116;52.152;5.392;2023-02-13T15:14:57;19.55;;;11.57;;
14080;SDS011;7116;52.152;5.392;2023-02-13T15:17:26;17.02;;;11.63;;
14080;SDS011;7116;52.152;5.392;2023-02-13T15:19:54;16.33;;;11.07;;
14080;SDS011;7116;52.152;5.392;2023-02-13T15:22:44;16.23;;;9.88;;
14080;SDS011;7116;52.152;5.392;2023-02-13T15:25:19;16.75;;;11.23;;
14080;SDS011;7116;52.152;5.392;2023-02-13T15:27:45;13.20;;;8.60;;
14080;SDS011;7116;52.152;5.392;2023-02-13T15:30:25;20.02;;;11.93;;
14080;SDS011;7116;52.152;5.392;2023-02-13T15:33:02;19.50;;;11.97;;
14080;SDS011;7116;52.152;5.392;2023-02-13T15:35:32;16.73;;;10.93;;
14080;SDS011;7116;52.152;5.392;2023-02-13T15:37:58;18.67;;;12.68;;
14080;SDS011;7116;52.152;5.392;2023-02-13T15:40:28;16.77;;;12.13;;
14080;SDS011;7116;52.152;5.392;2023-02-13T15:42:53;17.27;;;11.20;;
14080;SDS011;7116;52.152;5.392;2023-02-13T15:45:19;18.73;;;11.90;;
14080;SDS011;7116;52.152;5.392;2023-02-13T15:47:45;16.70;;;11.00;;
14080;SDS011;7116;52.152;5.392;2023-02-13T15:50:18;24.00;;;11.32;;
14080;SDS011;7116;52.152;5.392;2023-02-13T15:52:44;17.90;;;12.40;;
14080;SDS011;7116;52.152;5.392;2023-02-13T15:55:20;21.47;;;12.07;;
14080;SDS011;7116;52.152;5.392;2023-02-13T15:57:45;20.10;;;11.45;;
14080;SDS011;7116;52.152;5.392;2023-02-13T16:00:45;18.20;;;11.10;;
14080;SDS011;7116;52.152;5.392;2023-02-13T16:03:03;19.03;;;11.57;;
14080;SDS011;7116;52.152;5.392;2023-02-13T16:05:32;16.17;;;11.00;;
14080;SDS011;7116;52.152;5.392;2023-02-13T16:07:59;20.60;;;11.40;;
14080;SDS011;7116;52.152;5.392;2023-02-13T16:10:29;18.80;;;11.32;;
14080;SDS011;7116;52.152;5.392;2023-02-13T16:12:55;16.08;;;10.68;;
14080;SDS011;7116;52.152;5.392;2023-02-13T16:15:21;15.40;;;10.67;;
14080;SDS011;7116;52.152;5.392;2023-02-13T16:17:46;16.75;;;10.30;;
14080;SDS011;7116;52.152;5.392;2023-02-13T16:22:38;18.00;;;10.50;;
14080;SDS011;7116;52.152;5.392;2023-02-13T16:25:24;16.88;;;10.43;;
14080;SDS011;7116;52.152;5.392;2023-02-13T16:32:49;16.58;;;11.23;;
14080;SDS011;7116;52.152;5.392;2023-02-13T16:35:35;18.00;;;10.47;;
14080;SDS011;7116;52.152;5.392;2023-02-13T16:38:01;18.10;;;12.27;;
14080;SDS011;7116;52.152;5.392;2023-02-13T16:43:31;15.50;;;11.47;;
14080;SDS011;7116;52.152;5.392;2023-02-13T16:45:40;16.95;;;10.43;;
14080;SDS011;7116;52.152;5.392;2023-02-13T16:48:14;16.38;;;10.20;;
14080;SDS011;7116;52.152;5.392;2023-02-13T16:50:39;16.33;;;10.50;;
14080;SDS011;7116;52.152;5.392;2023-02-13T16:53:05;27.00;;;24.20;;
14080;SDS011;7116;52.152;5.392;2023-02-13T16:55:30;18.37;;;11.63;;
14080;SDS011;7116;52.152;5.392;2023-02-13T16:58:02;15.43;;;9.90;;
14080;SDS011;7116;52.152;5.392;2023-02-13T17:00:28;16.40;;;10.57;;
14080;SDS011;7116;52.152;5.392;2023-02-13T17:02:54;20.33;;;11.30;;
14080;SDS011;7116;52.152;5.392;2023-02-13T17:05:23;17.07;;;10.83;;
14080;SDS011;7116;52.152;5.392;2023-02-13T17:07:50;18.57;;;12.33;;
14080;SDS011;7116;52.152;5.392;2023-02-13T17:12:44;18.50;;;11.98;;